Time;durP1;ratioP1;P1;durP2;ratioP2;P2;SDS_P1;SDS_P2;PMS_P1;PMS_P2;Temp;Humidity;BMP_temperature;BMP_pressure;BME280_temperature;BME280_humidity;BME280_pressure;Samples;Min_cycle;Max_cycle;Signal;HPM_P1;HPM_P2
2023/06/23 00:00:15;;;;;;;0.30;0.30;;;;;;;19.35;76.22;96916.97;29395;218;63020;-51
2023/06/23 00:00:47;;;;;;;0.30;0.30;;;;;;;19.29;77.05;96909.28;29395;233;63000;-58
2023/06/23 00:01:22;;;;;;;0.40;0.40;;;;;;;19.25;77.39;96911.94;29395;197;63009;-53
2023/06/23 00:01:54;;;;;;;0.35;0.35;;;;;;;19.23;76.81;96914.22;29395;281;63004;-51
2023/06/23 00:02:26;;;;;;;0.30;0.30;;;;;;;19.21;76.92;96916.53;29394;236;64013;-57
2023/06/23 00:02:57;;;;;;;0.40;0.40;;;;;;;19.21;78.06;96915.72;29395;202;63004;-52
2023/06/23 00:03:30;;;;;;;0.40;0.40;;;;;;;19.17;78.05;96909.31;29395;262;63008;-52
2023/06/23 00:04:02;;;;;;;0.30;0.30;;;;;;;19.15;78.13;96915.16;29395;210;63015;-51
2023/06/23 00:04:33;;;;;;;0.40;0.40;;;;;;;19.13;78.08;96909.22;29395;274;63009;-59
2023/06/23 00:05:07;;;;;;;0.30;0.30;;;;;;;19.10;77.66;96915.41;29395;306;63005;-51
2023/06/23 00:05:39;;;;;;;0.40;0.40;;;;;;;19.09;78.36;96924.81;29395;306;63005;-51
2023/06/23 00:06:10;;;;;;;0.30;0.30;;;;;;;19.07;78.22;96916.09;29394;209;64009;-59
2023/06/23 00:06:41;;;;;;;0.30;0.30;;;;;;;19.06;77.97;96920.00;29395;419;63009;-51
2023/06/23 00:07:13;;;;;;;0.40;0.40;;;;;;;19.03;78.01;96916.00;29395;220;63005;-52
2023/06/23 00:07:44;;;;;;;0.40;0.40;;;;;;;19.03;78.09;96920.72;29395;311;63017;-52
2023/06/23 00:08:15;;;;;;;0.30;0.30;;;;;;;19.03;78.34;96923.47;29395;312;63004;-52
2023/06/23 00:08:48;;;;;;;0.37;0.37;;;;;;;19.04;79.12;96922.31;29395;198;63009;-53
2023/06/23 00:09:20;;;;;;;0.30;0.30;;;;;;;19.02;80.00;96919.09;29395;312;63004;-52
2023/06/23 00:09:51;;;;;;;0.32;0.32;;;;;;;19.02;79.74;96919.09;29395;324;63009;-58
2023/06/23 00:10:22;;;;;;;0.40;0.40;;;;;;;19.02;79.17;96927.38;29395;289;63007;-52
2023/06/23 00:10:54;;;;;;;0.30;0.30;;;;;;;19.02;79.01;96930.91;29395;238;63009;-51
2023/06/23 00:11:25;;;;;;;0.30;0.30;;;;;;;19.02;79.69;96930.13;29394;302;64009;-52
2023/06/23 00:11:56;;;;;;;0.30;0.30;;;;;;;19.02;79.45;96935.59;29395;199;63009;-52
2023/06/23 00:12:27;;;;;;;0.30;0.30;;;;;;;19.01;78.83;96934.00;29395;243;63005;-52
2023/06/23 00:12:59;;;;;;;0.30;0.30;;;;;;;19.02;78.74;96935.59;29395;314;63009;-51
2023/06/23 00:13:34;;;;;;;0.30;0.30;;;;;;;19.01;78.62;96934.00;29395;306;63005;-51
2023/06/23 00:14:09;;;;;;;0.30;0.30;;;;;;;19.02;79.04;96935.59;29395;298;63009;-52
2023/06/23 00:14:42;;;;;;;0.30;0.30;;;;;;;19.06;79.16;96936.50;29395;303;63005;-52
2023/06/23 00:15:15;;;;;;;0.30;0.30;;;;;;;19.11;79.06;96939.00;29395;247;63009;-52
2023/06/23 00:15:46;;;;;;;0.30;0.30;;;;;;;19.10;78.88;96934.66;29395;199;63004;-52
2023/06/23 00:16:17;;;;;;;0.30;0.30;;;;;;;19.09;79.29;96941.31;29395;197;63009;-52
2023/06/23 00:16:50;;;;;;;0.30;0.30;;;;;;;19.06;79.33;96948.28;29394;307;64009;-50
2023/06/23 00:17:21;;;;;;;0.30;0.30;;;;;;;19.05;79.02;96940.41;29395;284;63009;-51
2023/06/23 00:17:53;;;;;;;0.30;0.30;;;;;;;19.02;78.81;96941.91;29395;276;63004;-52
2023/06/23 00:18:24;;;;;;;0.30;0.30;;;;;;;19.02;79.71;96946.59;29395;283;63005;-51
2023/06/23 00:18:55;;;;;;;0.30;0.30;;;;;;;19.00;78.85;96943.41;29395;329;63005;-52
2023/06/23 00:19:27;;;;;;;0.35;0.35;;;;;;;19.00;79.89;96944.19;29395;204;63009;-52
2023/06/23 00:19:58;;;;;;;0.30;0.30;;;;;;;18.99;80.16;96939.06;29395;220;63005;-51
2023/06/23 00:20:29;;;;;;;0.30;0.30;;;;;;;18.99;79.59;96930.81;29395;202;63024;-52
2023/06/23 00:21:00;;;;;;;0.30;0.30;;;;;;;18.99;79.11;96941.81;29395;285;63008;-52
2023/06/23 00:21:32;;;;;;;0.30;0.30;;;;;;;19.00;79.13;96943.41;29395;200;63009;-51
2023/06/23 00:22:03;;;;;;;0.30;0.30;;;;;;;19.05;79.08;96945.91;29394;206;64009;-52
2023/06/23 00:22:35;;;;;;;0.30;0.30;;;;;;;19.05;79.02;96948.66;29395;197;63009;-52
2023/06/23 00:23:08;;;;;;;0.40;0.40;;;;;;;19.06;79.48;96947.50;29395;355;63004;-52
2023/06/23 00:23:39;;;;;;;0.30;0.30;;;;;;;19.05;79.68;96951.41;29395;308;63009;-52
2023/06/23 00:24:11;;;;;;;0.30;0.30;;;;;;;19.01;80.49;96947.75;29395;259;63004;-52
2023/06/23 00:24:43;;;;;;;0.30;0.30;;;;;;;19.00;80.12;96946.16;29395;227;63009;-52
2023/06/23 00:25:14;;;;;;;0.30;0.30;;;;;;;18.97;79.96;96949.59;29395;196;63004;-51
2023/06/23 00:25:45;;;;;;;0.37;0.37;;;;;;;18.96;80.44;96954.28;29395;228;63015;-51
2023/06/23 00:26:17;;;;;;;0.35;0.35;;;;;;;18.93;80.45;96948.66;29395;290;63005;-53
2023/06/23 00:26:48;;;;;;;0.40;0.40;;;;;;;18.92;80.50;96949.81;29395;251;63009;-51
2023/06/23 00:27:20;;;;;;;0.30;0.30;;;;;;;18.92;79.99;96949.81;29394;274;64009;-51
2023/06/23 00:27:54;;;;;;;0.30;0.30;;;;;;;18.95;79.79;96949.12;29395;247;63017;-58
2023/06/23 00:28:26;;;;;;;0.30;0.30;;;;;;;18.97;80.09;96955.09;29395;359;63005;-51
2023/06/23 00:28:57;;;;;;;0.30;0.30;;;;;;;18.95;80.96;96952.69;29395;257;63019;-51
2023/06/23 00:29:28;;;;;;;0.40;0.40;;;;;;;18.95;80.61;96951.87;29395;342;63005;-52
2023/06/23 00:29:59;;;;;;;0.30;0.30;;;;;;;18.92;80.60;96953.38;29395;205;63009;-57
2023/06/23 00:30:34;;;;;;;0.40;0.40;;;;;;;18.90;80.71;96950.16;29395;308;63004;-51
2023/06/23 00:31:06;;;;;;;0.30;0.30;;;;;;;18.89;80.72;96956.00;29395;303;63009;-52
2023/06/23 00:31:37;;;;;;;0.40;0.40;;;;;;;18.89;80.59;96959.56;29395;225;63004;-51
2023/06/23 00:32:10;;;;;;;0.30;0.30;;;;;;;18.89;80.96;96954.06;29395;302;63009;-57
2023/06/23 00:32:43;;;;;;;0.30;0.30;;;;;;;18.88;80.99;96957.94;29394;197;64004;-52
2023/06/23 00:33:14;;;;;;;0.40;0.40;;;;;;;18.87;81.51;96956.34;29395;250;63008;-51
2023/06/23 00:33:47;;;;;;;0.30;0.30;;;;;;;18.86;81.10;96959.44;29395;213;63005;-58
2023/06/23 00:34:18;;;;;;;0.30;0.30;;;;;;;18.84;81.25;96957.03;29395;222;63009;-51
2023/06/23 00:34:50;;;;;;;0.32;0.32;;;;;;;18.80;82.56;96960.81;29395;287;63017;-57
2023/06/23 00:35:21;;;;;;;0.30;0.30;;;;;;;18.79;81.78;96959.22;29395;287;63009;-52
2023/06/23 00:35:53;;;;;;;0.32;0.32;;;;;;;18.79;81.49;96959.22;29395;265;63005;-57
2023/06/23 00:36:24;;;;;;;0.40;0.40;;;;;;;18.82;81.71;96961.28;29395;209;63009;-51
2023/06/23 00:36:55;;;;;;;0.37;0.37;;;;;;;18.85;81.86;96955.09;29395;331;63005;-51
2023/06/23 00:37:32;;;;;;;0.32;0.32;;;;;;;18.85;81.56;96952.34;29395;230;63009;-52
2023/06/23 00:38:04;;;;;;;0.30;0.30;;;;;;;18.85;81.66;96957.84;29394;199;64009;-57
2023/06/23 00:38:35;;;;;;;0.30;0.30;;;;;;;18.83;81.89;96960.13;29395;305;63009;-51
2023/06/23 00:39:08;;;;;;;0.30;0.30;;;;;;;18.80;81.86;96950.63;29395;271;63010;-51
2023/06/23 00:39:41;;;;;;;0.30;0.30;;;;;;;18.80;82.54;96960.81;29396;238;63009;-51
2023/06/23 00:40:15;;;;;;;0.30;0.30;;;;;;;18.78;83.13;96954.84;29396;437;63004;-52
2023/06/23 00:40:46;;;;;;;0.30;0.30;;;;;;;18.74;82.49;96958.28;29396;221;63008;-52
2023/06/23 00:41:18;;;;;;;0.30;0.30;;;;;;;18.73;83.89;96944.87;29396;220;63005;-51
2023/06/23 00:41:50;;;;;;;0.35;0.35;;;;;;;18.74;83.12;96947.28;29396;291;63009;-51
2023/06/23 00:42:21;;;;;;;0.30;0.30;;;;;;;18.72;82.78;96944.09;29395;252;63999;-52
2023/06/23 00:42:53;;;;;;;0.40;0.40;;;;;;;18.72;83.17;96949.59;29396;246;63009;-51
2023/06/23 00:43:24;;;;;;;0.40;0.40;;;;;;;18.69;83.77;96942.06;29396;237;63005;-51
2023/06/23 00:43:59;;;;;;;0.30;0.30;;;;;;;18.68;83.58;96942.41;29395;197;64013;-51
2023/06/23 00:44:30;;;;;;;0.30;0.30;;;;;;;18.67;84.00;96943.53;29396;280;63005;-51
2023/06/23 00:45:02;;;;;;;0.30;0.30;;;;;;;18.65;84.68;96949.38;29396;240;63009;-51
2023/06/23 00:45:34;;;;;;;0.30;0.30;;;;;;;18.65;83.95;96941.12;29396;202;63004;-51
2023/06/23 00:46:12;;;;;;;0.35;0.35;;;;;;;18.67;83.99;96947.09;29396;219;63009;-52
2023/06/23 00:46:48;;;;;;;0.30;0.30;;;;;;;18.67;85.01;96946.28;29396;219;63004;-51
2023/06/23 00:47:20;;;;;;;0.30;0.30;;;;;;;18.68;84.44;96951.44;29396;215;63009;-51
2023/06/23 00:47:52;;;;;;;0.30;0.30;;;;;;;18.68;85.61;96947.91;29395;292;64008;-52
2023/06/23 00:48:24;;;;;;;0.30;0.30;;;;;;;18.66;85.33;96956.47;29396;214;63008;-57
2023/06/23 00:48:55;;;;;;;0.40;0.40;;;;;;;18.63;85.45;96954.41;29396;249;63005;-51
2023/06/23 00:49:27;;;;;;;0.30;0.30;;;;;;;18.61;85.75;96953.97;29396;268;63009;-58
2023/06/23 00:49:58;;;;;;;0.30;0.30;;;;;;;18.60;85.88;96952.34;29396;216;63005;-52
2023/06/23 00:50:30;;;;;;;0.35;0.35;;;;;;;18.58;85.28;96960.09;29396;226;63017;-52
2023/06/23 00:51:02;;;;;;;0.30;0.30;;;;;;;18.62;85.47;96955.56;29395;259;64009;-53
2023/06/23 00:51:34;;;;;;;0.40;0.40;;;;;;;18.64;85.01;96957.97;29396;230;63009;-51
2023/06/23 00:53:16;;;;;;;0.40;0.40;;;;;;;18.65;85.10;96960.37;88174;212;64005;-51
2023/06/23 00:53:48;;;;;;;0.40;0.40;;;;;;;18.66;85.60;96955.69;29394;325;64008;-51
2023/06/23 00:54:23;;;;;;;0.30;0.30;;;;;;;18.65;86.07;96960.37;29395;229;63001;-52
2023/06/23 00:54:58;;;;;;;0.32;0.32;;;;;;;18.66;85.66;96948.25;29395;211;63009;-51
2023/06/23 00:55:31;;;;;;;0.40;0.40;;;;;;;18.66;86.79;96958.44;29394;256;64009;-51
2023/06/23 00:56:03;;;;;;;0.40;0.40;;;;;;;18.62;87.10;96961.06;29395;283;63009;-51
2023/06/23 00:56:35;;;;;;;0.40;0.40;;;;;;;18.62;86.76;96955.56;29395;199;63005;-50
2023/06/23 00:57:06;;;;;;;0.40;0.40;;;;;;;18.60;87.64;96957.84;29395;198;63009;-57
2023/06/23 00:57:38;;;;;;;0.40;0.40;;;;;;;18.58;86.75;96954.63;29395;229;63004;-51
2023/06/23 00:58:09;;;;;;;0.40;0.40;;;;;;;18.58;87.70;96954.63;29395;232;63009;-51
2023/06/23 00:58:42;;;;;;;0.40;0.40;;;;;;;18.58;86.53;96959.31;29395;202;63004;-57
2023/06/23 00:59:13;;;;;;;0.40;0.40;;;;;;;18.58;86.54;96954.63;29395;274;63017;-51
2023/06/23 00:59:45;;;;;;;0.30;0.30;;;;;;;18.57;87.11;96955.75;29395;229;63004;-57
2023/06/23 01:00:18;;;;;;;0.30;0.30;;;;;;;18.56;86.35;96951.41;29395;258;63008;-52
2023/06/23 01:00:50;;;;;;;0.40;0.40;;;;;;;18.57;86.86;96955.75;29394;225;64008;-51
2023/06/23 01:01:21;;;;;;;0.40;0.40;;;;;;;18.56;86.92;96951.41;29395;230;63009;-57
2023/06/23 01:01:56;;;;;;;0.40;0.40;;;;;;;18.57;87.28;96952.22;29395;274;63005;-51
2023/06/23 01:02:27;;;;;;;0.40;0.40;;;;;;;18.57;87.80;96958.50;29395;203;63009;-51
2023/06/23 01:02:59;;;;;;;0.30;0.30;;;;;;;18.57;88.01;96953.00;29395;287;63005;-57
2023/06/23 01:03:31;;;;;;;0.40;0.40;;;;;;;18.56;88.28;96951.41;29395;210;63009;-57
2023/06/23 01:04:08;;;;;;;0.40;0.40;;;;;;;18.52;88.57;96955.97;29395;455;63015;-51
2023/06/23 01:04:39;;;;;;;0.40;0.40;;;;;;;18.52;88.00;96955.97;29395;281;63009;-57
2023/06/23 01:05:14;;;;;;;0.40;0.40;;;;;;;18.50;89.27;96955.50;29395;240;63004;-58
2023/06/23 01:05:48;;;;;;;0.40;0.40;;;;;;;18.48;89.51;96951.50;29395;267;63009;-59
2023/06/23 01:06:52;;;;;;;0.40;0.40;;;;;;;18.48;88.33;96949.56;29394;211;64009;-59
2023/06/23 01:07:35;;;;;;;0.40;0.40;;;;;;;18.53;88.49;96952.09;29394;284;64009;-51
2023/06/23 01:08:41;;;;;;;0.40;0.40;;;;;;;18.54;89.29;96959.19;29395;228;63004;-52
2023/06/23 01:10:00;;;;;;;0.40;0.40;;;;;;;18.48;89.70;96955.06;29395;213;63005;-51
2023/06/23 01:11:08;;;;;;;0.30;0.30;;;;;;;18.45;91.27;96954.94;29395;212;63009;-58
2023/06/23 01:11:56;;;;;;;0.40;0.40;;;;;;;18.41;91.55;96960.31;29395;226;63005;-52
2023/06/23 01:12:53;;;;;;;0.40;0.40;;;;;;;18.37;91.54;96954.69;29394;224;64013;-51
2023/06/23 01:14:01;;;;;;;0.40;0.40;;;;;;;18.31;92.41;96960.78;29395;219;63004;-58
2023/06/23 01:14:40;;;;;;;0.40;0.40;;;;;;;18.29;92.11;96968.56;29395;204;63009;-53
2023/06/23 01:15:35;;;;;;;0.30;0.30;;;;;;;18.30;93.40;96975.66;29395;218;63004;-51
2023/06/23 01:16:21;;;;;;;0.40;0.40;;;;;;;18.26;93.71;96970.03;29394;222;64014;-58
2023/06/23 01:17:03;;;;;;;0.40;0.40;;;;;;;18.21;93.01;96970.25;29395;205;63005;-53
2023/06/23 01:17:44;;;;;;;0.40;0.40;;;;;;;18.23;93.53;96969.91;29395;277;63009;-59
2023/06/23 01:18:45;;;;;;;0.40;0.40;;;;;;;18.24;92.75;96971.50;29395;297;63005;-61
2023/06/23 01:19:45;;;;;;;0.40;0.40;;;;;;;18.28;90.60;96966.94;29395;205;63009;-53
2023/06/23 01:20:26;;;;;;;0.40;0.40;;;;;;;18.26;91.00;96975.53;29395;255;63004;-54
2023/06/23 01:21:03;;;;;;;0.40;0.40;;;;;;;18.25;91.57;96978.59;29395;219;63009;-54
2023/06/23 01:21:53;;;;;;;0.40;0.40;;;;;;;18.27;90.62;96981.81;29394;268;64009;-60
2023/06/23 01:22:32;;;;;;;0.40;0.40;;;;;;;18.32;90.88;96978.84;29395;225;63025;-54
2023/06/23 01:23:53;;;;;;;0.40;0.40;;;;;;;18.33;89.27;96980.47;29395;221;63006;-54
2023/06/23 01:24:50;;;;;;;0.40;0.40;;;;;;;18.31;88.40;96983.53;29395;212;63022;-53
2023/06/23 01:25:56;;;;;;;0.40;0.40;;;;;;;18.32;89.16;96989.84;29395;243;63018;-56
2023/06/23 01:26:55;;;;;;;0.40;0.40;;;;;;;18.39;88.44;96984.56;29395;239;63009;-54
2023/06/23 01:27:56;;;;;;;0.40;0.40;;;;;;;18.35;88.49;96978.97;29394;207;64013;-51
2023/06/23 01:28:43;;;;;;;0.40;0.40;;;;;;;18.35;88.78;96983.66;29439;236;63004;-52
2023/06/23 01:29:21;;;;;;;0.45;0.45;;;;;;;18.31;89.40;96978.06;29395;196;63009;-52
2023/06/23 01:29:55;;;;;;;0.40;0.40;;;;;;;18.23;90.10;96978.16;29395;210;63000;-52
2023/06/23 01:30:31;;;;;;;1.02;0.60;;;;;;;18.22;90.35;96982.03;29395;225;63008;-52
2023/06/23 01:31:06;;;;;;;0.50;0.50;;;;;;;18.16;91.29;96983.37;29395;243;63017;-53
2023/06/23 01:31:50;;;;;;;0.40;0.40;;;;;;;18.12;91.33;96985.19;29395;221;63009;-59
2023/06/23 01:32:26;;;;;;;0.50;0.50;;;;;;;18.05;91.74;96986.56;29395;280;63012;-53
2023/06/23 01:33:15;;;;;;;0.40;0.40;;;;;;;18.07;91.05;96994.44;29394;224;64013;-57
2023/06/23 01:34:06;;;;;;;0.50;0.50;;;;;;;18.08;90.97;96988.63;29395;199;63005;-61
2023/06/23 01:34:53;;;;;;;0.45;0.45;;;;;;;18.02;91.34;96992.72;29417;219;63009;-60
2023/06/23 01:35:28;;;;;;;0.45;0.45;;;;;;;17.93;93.00;96983.78;29395;198;63004;-60
2023/06/23 01:36:06;;;;;;;0.40;0.40;;;;;;;17.89;92.67;96988.34;29395;243;63009;-60
2023/06/23 01:36:50;;;;;;;0.40;0.40;;;;;;;17.86;92.13;96982.72;29395;209;63004;-53
2023/06/23 01:37:29;;;;;;;0.40;0.40;;;;;;;17.86;92.34;96994.50;29395;212;63017;-62
2023/06/23 01:38:10;;;;;;;0.40;0.40;;;;;;;17.86;92.02;96989.03;29394;265;64008;-52
2023/06/23 01:38:48;;;;;;;0.40;0.40;;;;;;;17.88;92.06;97003.22;29417;233;63009;-56
2023/06/23 01:39:24;;;;;;;0.50;0.50;;;;;;;17.82;90.09;96992.78;29395;203;63005;-69
2023/06/23 01:40:08;;;;;;;0.40;0.40;;;;;;;17.79;90.63;96994.25;29395;228;63009;-59
2023/06/23 01:40:46;;;;;;;0.40;0.40;;;;;;;17.72;91.66;96997.53;29394;238;64005;-55
2023/06/23 01:41:24;;;;;;;0.40;0.40;;;;;;;17.67;91.31;96996.94;29394;221;64009;-59
2023/06/23 01:42:05;;;;;;;0.60;0.60;;;;;;;17.64;90.40;96997.59;29394;212;64005;-59
2023/06/23 01:42:37;;;;;;;;;;;;;;;17.60;91.08;96991.97;29996;983;6004;-61
2023/06/23 01:43:11;;;;;;;0.40;0.40;;;;;;;17.61;90.45;96993.56;29399;224;64013;-59
2023/06/23 01:43:47;;;;;;;0.50;0.50;;;;;;;17.62;90.41;96991.63;29395;204;63004;-60
2023/06/23 01:44:22;;;;;;;0.40;0.40;;;;;;;17.59;90.51;96995.03;29395;317;63009;-55
2023/06/23 01:44:56;;;;;;;0.40;0.40;;;;;;;17.61;90.76;96990.03;29395;211;63004;-60
2023/06/23 01:45:27;;;;;;;0.50;0.50;;;;;;;17.58;90.27;96993.44;29395;214;63026;-59
2023/06/23 01:46:10;;;;;;;0.80;0.62;;;;;;;17.50;91.19;96995.09;29395;208;63004;-58
2023/06/23 01:46:46;;;;;;;0.50;0.50;;;;;;;17.47;92.33;96997.72;29394;277;64014;-53
2023/06/23 01:47:31;;;;;;;0.50;0.50;;;;;;;17.46;91.76;96996.09;29395;300;63005;-60
2023/06/23 01:48:07;;;;;;;0.43;0.43;;;;;;;17.45;91.41;97000.78;29395;217;63009;-64
2023/06/23 01:48:42;;;;;;;0.50;0.50;;;;;;;17.51;90.62;96998.66;29395;208;63005;-59
2023/06/23 01:49:17;;;;;;;0.50;0.50;;;;;;;17.55;90.21;97005.87;29395;214;63009;-66
2023/06/23 01:49:51;;;;;;;0.70;0.70;;;;;;;17.52;90.36;97006.56;29395;285;63004;-53
2023/06/23 01:50:24;;;;;;;0.40;0.40;;;;;;;17.50;90.45;97002.53;29394;221;64013;-63
2023/06/23 01:50:57;;;;;;;0.98;0.98;;;;;;;17.43;90.48;96998.37;29395;253;63004;-61
2023/06/23 01:51:30;;;;;;;1.20;1.20;;;;;;;17.41;90.16;96997.91;29395;208;63009;-59
2023/06/23 01:52:04;;;;;;;0.40;0.40;;;;;;;17.36;91.17;97003.59;29395;223;63000;-61
2023/06/23 01:52:39;;;;;;;0.40;0.40;;;;;;;17.33;91.10;97009.75;29395;199;63008;-51
2023/06/23 01:53:14;;;;;;;0.65;0.65;;;;;;;17.31;91.81;97013.97;29395;228;63004;-61
2023/06/23 01:53:48;;;;;;;0.40;0.40;;;;;;;17.38;90.96;97006.81;29395;201;63008;-56
2023/06/23 01:54:21;;;;;;;0.40;0.40;;;;;;;17.37;90.49;97001.66;29394;203;64009;-61
2023/06/23 01:54:54;;;;;;;0.40;0.40;;;;;;;17.34;90.31;97003.13;29395;208;63009;-61
2023/06/23 01:55:29;;;;;;;0.50;0.50;;;;;;;17.33;90.17;97009.75;29395;208;63005;-53
2023/06/23 01:56:04;;;;;;;0.40;0.40;;;;;;;17.29;90.38;96997.06;29395;197;63009;-52
2023/06/23 01:56:37;;;;;;;0.45;0.45;;;;;;;17.26;90.88;97004.00;29394;214;64009;-55
2023/06/23 01:57:12;;;;;;;0.40;0.40;;;;;;;17.23;91.02;97003.88;29395;228;63004;-52
2023/06/23 01:57:47;;;;;;;0.50;0.50;;;;;;;17.24;91.34;97003.53;29395;204;63000;-60
2023/06/23 01:58:20;;;;;;;0.50;0.50;;;;;;;17.21;91.95;97006.94;29395;196;63009;-60
2023/06/23 01:58:58;;;;;;;0.60;0.60;;;;;;;17.20;91.38;97004.53;29395;202;63004;-59
2023/06/23 01:59:31;;;;;;;0.40;0.40;;;;;;;17.17;92.16;97011.47;29395;209;63009;-63
2023/06/23 02:00:05;;;;;;;0.50;0.50;;;;;;;17.13;92.39;97010.53;29394;218;64008;-61
2023/06/23 02:00:38;;;;;;;0.50;0.50;;;;;;;17.06;92.59;97008.31;29395;200;63024;-53
2023/06/23 02:01:12;;;;;;;0.50;0.50;;;;;;;17.09;91.76;97010.38;29395;236;63005;-63
2023/06/23 02:01:45;;;;;;;0.50;0.50;;;;;;;17.05;92.17;97014.13;29395;225;63009;-62
2023/06/23 02:02:20;;;;;;;0.47;0.47;;;;;;;17.00;92.97;97006.09;29395;265;63005;-61
2023/06/23 02:02:55;;;;;;;0.50;0.50;;;;;;;17.01;93.18;97013.19;29395;221;63009;-53
2023/06/23 02:03:30;;;;;;;0.50;0.50;;;;;;;17.00;93.41;97011.56;29394;206;64009;-58
2023/06/23 02:04:04;;;;;;;0.40;0.40;;;;;;;16.98;93.79;97014.63;29395;343;63009;-61
2023/06/23 02:04:36;;;;;;;0.40;0.40;;;;;;;16.97;94.18;97013.06;29395;224;63005;-55
2023/06/23 02:05:11;;;;;;;1.35;1.35;;;;;;;16.94;94.06;97018.41;29395;216;63009;-62
2023/06/23 02:05:46;;;;;;;0.50;0.50;;;;;;;16.95;93.91;97014.53;29394;229;64009;-61
2023/06/23 02:06:18;;;;;;;0.50;0.50;;;;;;;16.95;93.50;97020.00;29395;234;63009;-58
2023/06/23 02:06:51;;;;;;;0.40;0.40;;;;;;;16.94;93.50;97021.13;29395;394;63004;-59
2023/06/23 02:07:26;;;;;;;0.50;0.50;;;;;;;16.95;93.63;97020.00;29395;205;63008;-63
2023/06/23 02:07:59;;;;;;;0.40;0.40;;;;;;;16.91;93.42;97019.84;29395;267;63007;-54
2023/06/23 02:08:34;;;;;;;3.87;1.40;;;;;;;17.04;92.57;97018.00;29395;237;63009;-63
2023/06/23 02:09:14;;;;;;;0.50;0.50;;;;;;;17.12;90.48;97014.41;29395;254;63005;-63
2023/06/23 02:09:48;;;;;;;0.40;0.40;;;;;;;17.10;90.31;97027.66;29395;241;63009;-63
2023/06/23 02:10:21;;;;;;;0.40;0.40;;;;;;;17.05;90.86;97025.09;29395;197;63005;-61
2023/06/23 02:10:58;;;;;;;0.50;0.50;;;;;;;17.00;91.44;97033.50;29394;203;64013;-62
2023/06/23 02:11:32;;;;;;;0.50;0.50;;;;;;;17.00;91.56;97028.00;29395;228;63005;-61
2023/06/23 02:12:06;;;;;;;0.52;0.52;;;;;;;17.01;91.47;97024.94;29395;220;63009;-60
2023/06/23 02:12:41;;;;;;;0.50;0.50;;;;;;;16.95;91.69;97025.50;29395;204;63004;-52
2023/06/23 02:13:15;;;;;;;0.50;0.50;;;;;;;16.92;92.23;97026.16;29395;235;63009;-60
2023/06/23 02:13:49;;;;;;;0.40;0.40;;;;;;;16.90;91.87;97029.22;29395;203;63004;-53
2023/06/23 02:14:22;;;;;;;0.40;0.40;;;;;;;16.87;92.81;97034.56;29395;202;63009;-60
2023/06/23 02:14:53;;;;;;;0.50;0.50;;;;;;;16.88;92.78;97027.94;29394;221;64008;-64
2023/06/23 02:15:26;;;;;;;3.03;2.80;;;;;;;16.94;92.25;97034.84;29394;295;64013;-58
2023/06/23 02:16:00;;;;;;;0.43;0.43;;;;;;;16.92;91.74;97032.44;29395;209;63005;-62
2023/06/23 02:16:33;;;;;;;0.52;0.52;;;;;;;16.89;91.91;97037.75;29395;260;63009;-67
2023/06/23 02:17:10;;;;;;;0.40;0.40;;;;;;;16.93;91.19;97034.03;29395;221;63005;-60
2023/06/23 02:17:43;;;;;;;0.40;0.40;;;;;;;16.94;91.83;97035.66;29395;216;63009;-61
2023/06/23 02:18:17;;;;;;;0.40;0.40;;;;;;;16.93;91.77;97044.19;29395;209;63005;-62
2023/06/23 02:18:54;;;;;;;0.40;0.40;;;;;;;16.90;91.98;97045.66;29395;202;63009;-62
2023/06/23 02:19:27;;;;;;;0.40;0.40;;;;;;;16.85;91.98;97040.38;29395;222;63005;-60
2023/06/23 02:20:00;;;;;;;0.40;0.40;;;;;;;16.82;92.84;97053.91;29395;222;63009;-61
2023/06/23 02:20:33;;;;;;;0.40;0.40;;;;;;;16.81;92.67;97052.31;29394;260;64009;-61
2023/06/23 02:21:06;;;;;;;0.50;0.50;;;;;;;16.79;92.77;97057.31;29395;236;63009;-58
2023/06/23 02:21:39;;;;;;;0.40;0.40;;;;;;;16.78;92.76;97053.75;29395;199;63004;-63
2023/06/23 02:22:13;;;;;;;0.50;0.50;;;;;;;16.80;93.26;97050.69;29395;286;63009;-58
2023/06/23 02:23:05;;;;;;;0.40;0.40;;;;;;;16.83;92.43;97050.03;29394;196;64004;-59
2023/06/23 02:23:38;;;;;;;0.50;0.50;;;;;;;16.80;92.58;97053.44;29395;222;63009;-53
2023/06/23 02:24:11;;;;;;;0.50;0.50;;;;;;;16.77;93.08;97052.16;29395;213;63005;-53
2023/06/23 02:24:43;;;;;;;0.40;0.40;;;;;;;16.80;93.47;97056.19;29395;219;63009;-53
2023/06/23 02:25:17;;;;;;;0.50;0.50;;;;;;;16.77;93.29;97048.59;29395;200;63005;-64
2023/06/23 02:25:49;;;;;;;0.50;0.50;;;;;;;16.77;93.25;97048.59;29394;227;64013;-58
2023/06/23 02:26:25;;;;;;;0.40;0.40;;;;;;;16.80;92.44;97051.50;29395;212;63005;-57
2023/06/23 02:26:57;;;;;;;0.50;0.50;;;;;;;16.77;92.69;97043.13;29395;204;63009;-55
2023/06/23 02:27:29;;;;;;;0.50;0.50;;;;;;;16.83;92.32;97050.03;29395;286;63004;-59
2023/06/23 02:28:02;;;;;;;0.50;0.50;;;;;;;16.83;91.77;97045.38;29395;264;63009;-59
2023/06/23 02:28:34;;;;;;;0.47;0.47;;;;;;;16.86;91.55;97052.13;29395;200;63016;-60
2023/06/23 02:29:08;;;;;;;0.40;0.40;;;;;;;16.80;92.32;97045.22;29395;229;63009;-61
2023/06/23 02:29:41;;;;;;;0.40;0.40;;;;;;;16.81;92.36;97049.56;29394;233;64004;-61
2023/06/23 02:30:13;;;;;;;0.43;0.43;;;;;;;16.81;91.91;97049.56;29395;203;63008;-61
2023/06/23 02:30:47;;;;;;;0.40;0.40;;;;;;;16.82;91.74;97051.19;29394;225;64009;-61
2023/06/23 02:31:22;;;;;;;0.70;0.70;;;;;;;16.76;91.98;97050.53;29394;236;64014;-59
2023/06/23 02:31:53;;;;;;;0.50;0.50;;;;;;;16.72;92.15;97050.41;29395;239;63005;-59
2023/06/23 02:32:25;;;;;;;0.50;0.50;;;;;;;16.73;92.72;97057.47;29395;207;63009;-53
2023/06/23 02:32:56;;;;;;;0.50;0.50;;;;;;;16.77;92.52;97048.59;29395;235;63011;-66
2023/06/23 02:33:29;;;;;;;0.50;0.50;;;;;;;16.78;92.00;97042.81;29395;213;63009;-52
2023/06/23 02:34:01;;;;;;;0.60;0.60;;;;;;;16.77;92.30;97045.88;29394;211;64009;-53
2023/06/23 02:34:37;;;;;;;0.45;0.45;;;;;;;16.77;92.17;97057.63;29395;238;63009;-62
2023/06/23 02:35:10;;;;;;;0.40;0.40;;;;;;;16.77;91.46;97049.41;29395;218;63004;-52
2023/06/23 02:35:41;;;;;;;0.50;0.50;;;;;;;16.77;91.96;97051.34;29394;218;64013;-67
2023/06/23 02:36:17;;;;;;;0.40;0.40;;;;;;;16.71;91.56;97059.75;29395;377;63004;-58
2023/06/23 02:36:55;;;;;;;0.40;0.40;;;;;;;16.68;92.61;97052.19;29395;236;63009;-58
2023/06/23 02:37:28;;;;;;;0.50;0.50;;;;;;;16.63;92.81;97049.59;29394;233;64008;-61
2023/06/23 02:38:05;;;;;;;0.40;0.40;;;;;;;16.64;92.56;97059.44;29395;249;63022;-60
2023/06/23 02:38:39;;;;;;;0.40;0.40;;;;;;;16.59;92.53;97059.63;29395;224;63005;-64
2023/06/23 02:39:15;;;;;;;0.50;0.50;;;;;;;16.57;93.95;97058.34;29394;238;64014;-59
2023/06/23 02:40:00;;;;;;;0.50;0.50;;;;;;;16.58;93.60;97058.00;29395;310;63005;-53
2023/06/23 02:40:36;;;;;;;0.45;0.45;;;;;;;16.57;94.03;97059.13;29395;252;63009;-58
2023/06/23 02:41:10;;;;;;;0.50;0.50;;;;;;;16.59;93.60;97064.28;29395;220;63005;-53
2023/06/23 02:41:44;;;;;;;0.40;0.40;;;;;;;16.62;93.34;97058.16;29394;240;64013;-63
2023/06/23 02:42:19;;;;;;;0.50;0.50;;;;;;;16.64;92.19;97059.44;29395;288;63005;-58
2023/06/23 02:43:00;;;;;;;0.40;0.40;;;;;;;16.65;92.79;97065.72;29394;277;64009;-59
2023/06/23 02:43:37;;;;;;;;;;;;;;;16.64;92.30;97062.19;29996;983;6000;-53
2023/06/23 02:44:15;;;;;;;0.50;0.50;;;;;;;16.58;92.64;97058.00;29400;212;63004;-59
2023/06/23 02:44:58;;;;;;;0.50;0.50;;;;;;;16.52;93.20;97062.06;29395;257;63009;-60
2023/06/23 02:45:35;;;;;;;0.50;0.50;;;;;;;16.51;93.71;97059.63;29395;202;63004;-61
2023/06/23 02:46:09;;;;;;;0.50;0.50;;;;;;;16.58;92.73;97055.28;29395;203;63009;-60
2023/06/23 02:46:44;;;;;;;0.47;0.47;;;;;;;16.56;93.06;97057.53;29394;360;64009;-61
2023/06/23 02:47:19;;;;;;;0.50;0.50;;;;;;;16.56;93.04;97060.28;29395;216;63009;-61
2023/06/23 02:47:56;;;;;;;1.02;1.02;;;;;;;16.68;91.52;97059.59;29395;352;63005;-60
2023/06/23 02:48:34;;;;;;;0.40;0.40;;;;;;;16.70;91.23;97060.88;29395;202;63026;-61
2023/06/23 02:49:15;;;;;;;0.62;0.62;;;;;;;16.69;91.57;97061.19;29395;347;63005;-57
2023/06/23 02:49:52;;;;;;;0.40;0.40;;;;;;;16.64;91.42;97056.72;29417;221;63009;-63
2023/06/23 02:50:29;;;;;;;0.50;0.50;;;;;;;16.61;92.06;97062.03;29395;219;63004;-53
2023/06/23 02:51:02;;;;;;;0.50;0.50;;;;;;;16.60;92.56;97057.69;29394;210;64013;-60
2023/06/23 02:51:37;;;;;;;0.50;0.50;;;;;;;16.61;92.51;97064.78;29395;225;63004;-69